createdAt,value
2016-11-20T00:00:58.995Z,0
2016-11-20T00:02:07.922Z,0
2016-11-20T00:03:16.583Z,0
2016-11-20T00:04:25.186Z,0
2016-11-20T00:05:33.838Z,0
2016-11-20T00:06:43.089Z,0
2016-11-20T00:07:51.703Z,0
2016-11-20T00:09:00.711Z,0
2016-11-20T00:10:09.332Z,0
2016-11-20T00:11:18.273Z,0
2016-11-20T00:12:27.210Z,0
2016-11-20T00:13:36.796Z,0
2016-11-20T00:14:45.859Z,0
2016-11-20T00:15:54.781Z,0
2016-11-20T00:17:03.729Z,0
2016-11-20T00:18:12.969Z,0
2016-11-20T00:19:21.588Z,0
2016-11-20T00:20:30.881Z,0
2016-11-20T00:21:39.502Z,0
2016-11-20T00:22:48.435Z,0
2016-11-20T00:23:57.089Z,0
2016-11-20T00:25:06.017Z,0
2016-11-20T00:26:15.293Z,0
2016-11-20T00:27:24.563Z,0
2016-11-20T00:28:33.495Z,0
2016-11-20T00:29:42.114Z,0
2016-11-20T00:30:50.731Z,0
2016-11-20T00:32:00.659Z,0
2016-11-20T00:33:09.282Z,0
2016-11-20T00:34:18.536Z,0
2016-11-20T00:35:27.152Z,0
2016-11-20T00:36:36.067Z,0
2016-11-20T00:37:45.019Z,0
2016-11-20T00:38:53.952Z,0
2016-11-20T00:40:02.888Z,0
2016-11-20T00:41:11.833Z,0
2016-11-20T00:42:21.089Z,0
2016-11-20T00:43:30.154Z,0
2016-11-20T00:44:39.410Z,0
2016-11-20T00:45:48.010Z,0
2016-11-20T00:46:56.945Z,0
2016-11-20T00:48:05.890Z,0
2016-11-20T00:49:14.846Z,0
2016-11-20T00:50:23.445Z,0
2016-11-20T00:51:32.059Z,0
2016-11-20T00:52:40.980Z,0
2016-11-20T00:53:49.924Z,0
2016-11-20T00:54:59.212Z,0
2016-11-20T00:56:07.808Z,0
2016-11-20T00:57:16.732Z,0
2016-11-20T00:58:25.990Z,0
2016-11-20T00:59:35.264Z,0
2016-11-20T01:00:44.302Z,0
2016-11-20T01:01:53.561Z,0
2016-11-20T01:03:02.822Z,0
2016-11-20T01:04:11.448Z,0
2016-11-20T01:05:20.060Z,0
2016-11-20T01:06:28.974Z,0
2016-11-20T01:07:38.225Z,0
2016-11-20T01:08:46.824Z,0
2016-11-20T01:09:56.414Z,0
2016-11-20T01:11:05.370Z,0
2016-11-20T01:12:14.048Z,0
2016-11-20T01:13:22.976Z,0
2016-11-20T01:14:31.902Z,0
2016-11-20T01:15:41.158Z,0
2016-11-20T01:16:49.757Z,0
2016-11-20T01:17:59.033Z,0
2016-11-20T01:19:07.651Z,0
2016-11-20T01:20:16.260Z,0
2016-11-20T01:21:24.864Z,0
2016-11-20T01:22:33.789Z,0
2016-11-20T01:23:43.061Z,0
2016-11-20T01:24:52.325Z,0
2016-11-20T01:26:01.595Z,0
2016-11-20T01:27:10.525Z,0
2016-11-20T01:28:19.438Z,0
2016-11-20T01:29:29.350Z,0
2016-11-20T01:30:38.602Z,0
2016-11-20T01:31:47.528Z,0
2016-11-20T01:32:56.471Z,0
2016-11-20T01:34:05.396Z,0
2016-11-20T01:35:14.108Z,0
2016-11-20T01:36:23.035Z,0
2016-11-20T01:37:32.284Z,0
2016-11-20T01:38:41.213Z,0
2016-11-20T01:39:50.144Z,0
2016-11-20T01:40:59.115Z,0
2016-11-20T01:42:07.715Z,0
2016-11-20T01:43:16.981Z,0
2016-11-20T01:44:25.925Z,0
2016-11-20T01:45:34.869Z,0
2016-11-20T01:46:43.919Z,0
2016-11-20T01:47:53.182Z,0
2016-11-20T01:49:01.793Z,0
2016-11-20T01:50:11.374Z,0
2016-11-20T01:51:19.985Z,0
2016-11-20T01:52:28.636Z,0
2016-11-20T01:53:37.230Z,0
2016-11-20T01:54:46.141Z,0
2016-11-20T01:55:54.736Z,0
2016-11-20T01:57:03.674Z,0
2016-11-20T01:58:13.327Z,0
2016-11-20T01:59:22.567Z,0
2016-11-20T02:00:31.814Z,0
2016-11-20T02:01:40.744Z,0
2016-11-20T02:02:49.662Z,0
2016-11-20T02:03:58.936Z,0
2016-11-20T02:05:07.560Z,0
2016-11-20T02:06:16.488Z,0
2016-11-20T02:07:25.432Z,0
2016-11-20T02:08:34.049Z,0
2016-11-20T02:09:43.788Z,0
2016-11-20T02:10:52.412Z,0
2016-11-20T02:12:01.362Z,0
2016-11-20T02:13:09.971Z,0
2016-11-20T02:14:19.230Z,0
2016-11-20T02:15:28.546Z,0
2016-11-20T02:16:37.795Z,0
2016-11-20T02:17:46.723Z,0
2016-11-20T02:18:55.333Z,0
2016-11-20T02:20:03.952Z,0
2016-11-20T02:21:13.889Z,0
2016-11-20T02:22:22.811Z,0
2016-11-20T02:23:32.055Z,0
2016-11-20T02:24:41.313Z,0
2016-11-20T02:25:50.252Z,0
2016-11-20T02:26:59.230Z,0
2016-11-20T02:28:08.478Z,0
2016-11-20T02:29:17.413Z,0
2016-11-20T02:30:26.037Z,0
2016-11-20T02:31:34.972Z,0
2016-11-20T02:32:44.638Z,0
2016-11-20T02:33:53.574Z,0
2016-11-20T02:35:02.525Z,0
2016-11-20T02:36:11.128Z,0
2016-11-20T02:37:19.740Z,0
2016-11-20T02:38:28.406Z,0
2016-11-20T02:39:37.339Z,0
2016-11-20T02:40:46.581Z,0
2016-11-20T02:41:55.219Z,0
2016-11-20T02:43:03.840Z,0
2016-11-20T02:44:12.882Z,0
2016-11-20T02:45:21.805Z,0
2016-11-20T02:46:31.056Z,0
2016-11-20T02:47:39.982Z,0
2016-11-20T02:48:48.919Z,0
2016-11-20T02:49:58.266Z,0
2016-11-20T02:51:07.242Z,0
2016-11-20T02:52:15.836Z,0
2016-11-20T02:53:24.434Z,0
2016-11-20T02:54:33.369Z,0
2016-11-20T02:55:43.253Z,0
2016-11-20T02:56:52.192Z,0
2016-11-20T02:58:01.151Z,0
2016-11-20T02:59:10.411Z,0
2016-11-20T03:00:19.343Z,0
2016-11-20T03:01:28.618Z,0
2016-11-20T03:02:37.220Z,0
2016-11-20T03:03:45.819Z,0
2016-11-20T03:04:54.748Z,0
2016-11-20T03:06:03.681Z,0
2016-11-20T03:07:12.640Z,0
2016-11-20T03:08:21.916Z,0
2016-11-20T03:09:30.854Z,0
2016-11-20T03:10:39.779Z,0
2016-11-20T03:11:48.713Z,0
2016-11-20T03:12:57.378Z,0
2016-11-20T03:14:06.312Z,0
2016-11-20T03:15:15.889Z,0
2016-11-20T03:16:24.826Z,0
2016-11-20T03:17:33.757Z,0
2016-11-20T03:18:42.757Z,0
2016-11-20T03:19:51.685Z,0
2016-11-20T03:21:00.924Z,0
2016-11-20T03:22:09.534Z,0
2016-11-20T03:23:18.461Z,0
2016-11-20T03:24:27.748Z,0
2016-11-20T03:25:36.358Z,0
2016-11-20T03:26:45.290Z,0
2016-11-20T03:27:53.931Z,0
2016-11-20T03:29:02.548Z,0
2016-11-20T03:30:11.508Z,0
2016-11-20T03:31:20.436Z,0
2016-11-20T03:32:29.080Z,0
2016-11-20T03:33:38.012Z,0
2016-11-20T03:34:46.927Z,0
2016-11-20T03:35:55.595Z,0
2016-11-20T03:37:04.862Z,0
2016-11-20T03:38:13.490Z,0
2016-11-20T03:39:22.094Z,0
2016-11-20T03:40:31.038Z,0
2016-11-20T03:41:40.313Z,0
2016-11-20T03:42:48.910Z,0
2016-11-20T03:43:57.865Z,0
2016-11-20T03:45:06.470Z,0
2016-11-20T03:46:15.072Z,0
2016-11-20T03:47:23.723Z,0
2016-11-20T03:48:32.320Z,0
2016-11-20T03:49:41.272Z,0
2016-11-20T03:50:50.525Z,0
2016-11-20T03:51:59.138Z,0
2016-11-20T03:53:08.157Z,0
2016-11-20T03:54:17.742Z,0
2016-11-20T03:55:26.666Z,0
2016-11-20T03:56:35.599Z,0
2016-11-20T03:57:44.894Z,0
2016-11-20T03:58:53.880Z,0
2016-11-20T04:00:02.491Z,0
2016-11-20T04:01:12.091Z,0
2016-11-20T04:02:21.037Z,0
2016-11-20T04:03:29.656Z,0
2016-11-20T04:04:38.626Z,0
2016-11-20T04:05:47.864Z,0
2016-11-20T04:06:56.797Z,0
2016-11-20T04:08:05.736Z,0
2016-11-20T04:09:15.005Z,0
2016-11-20T04:10:24.368Z,0
2016-11-20T04:11:33.298Z,0
2016-11-20T04:12:41.911Z,0
2016-11-20T04:13:50.524Z,0
2016-11-20T04:14:59.469Z,0
2016-11-20T04:16:08.423Z,0
2016-11-20T04:17:17.366Z,0
2016-11-20T04:18:26.610Z,0
2016-11-20T04:19:35.229Z,0
2016-11-20T04:20:44.501Z,0
2016-11-20T04:21:54.247Z,0
2016-11-20T04:23:03.172Z,0
2016-11-20T04:24:11.789Z,0
2016-11-20T04:25:20.724Z,0
2016-11-20T04:26:29.984Z,0
2016-11-20T04:27:38.954Z,0
2016-11-20T04:28:48.854Z,0
2016-11-20T04:29:57.802Z,0
2016-11-20T04:31:06.735Z,0
2016-11-20T04:32:15.662Z,0
2016-11-20T04:33:25.057Z,0
2016-11-20T04:34:33.651Z,0
2016-11-20T04:35:42.895Z,0
2016-11-20T04:36:51.818Z,0
2016-11-20T04:38:00.426Z,0
2016-11-20T04:39:09.397Z,0
2016-11-20T04:40:18.009Z,0
2016-11-20T04:41:27.253Z,0
2016-11-20T04:42:35.864Z,0
2016-11-20T04:43:44.470Z,0
2016-11-20T04:44:53.757Z,0
2016-11-20T04:46:02.373Z,0
2016-11-20T04:47:11.318Z,0
2016-11-20T04:48:19.938Z,0
2016-11-20T04:49:28.875Z,0
2016-11-20T04:50:38.168Z,0
2016-11-20T04:51:47.420Z,0
2016-11-20T04:52:56.676Z,0
2016-11-20T04:54:05.632Z,0
2016-11-20T04:55:14.574Z,0
2016-11-20T04:56:23.618Z,0
2016-11-20T04:57:32.559Z,0
2016-11-20T04:58:41.175Z,0
2016-11-20T04:59:50.118Z,0
2016-11-20T05:00:58.723Z,0
2016-11-20T05:02:08.593Z,0
2016-11-20T05:03:17.537Z,0
2016-11-20T05:04:26.809Z,0
2016-11-20T05:05:35.738Z,0
2016-11-20T05:06:44.981Z,0
2016-11-20T05:07:53.972Z,0
2016-11-20T05:09:02.576Z,0
2016-11-20T05:10:11.186Z,0
2016-11-20T05:11:20.127Z,0
2016-11-20T05:12:29.375Z,0
2016-11-20T05:13:38.330Z,0
2016-11-20T05:14:47.257Z,0
2016-11-20T05:15:56.515Z,0
2016-11-20T05:17:05.784Z,0
2016-11-20T05:18:14.706Z,0
2016-11-20T05:19:23.908Z,0
2016-11-20T05:20:32.855Z,0
2016-11-20T05:21:41.804Z,0
2016-11-20T05:22:51.064Z,0
2016-11-20T05:23:59.671Z,0
2016-11-20T05:25:08.667Z,0
2016-11-20T05:26:17.608Z,0
2016-11-20T05:27:26.547Z,0
2016-11-20T05:28:35.803Z,0
2016-11-20T05:29:44.734Z,0
2016-11-20T05:30:54.032Z,0
2016-11-20T05:32:02.973Z,0
2016-11-20T05:33:12.229Z,0
2016-11-20T05:34:21.169Z,0
2016-11-20T05:35:30.111Z,0
2016-11-20T05:36:39.744Z,0
2016-11-20T05:37:48.353Z,0
2016-11-20T05:38:57.619Z,0
2016-11-20T05:40:06.561Z,0
2016-11-20T05:41:15.216Z,0
2016-11-20T05:42:24.202Z,0
2016-11-20T05:43:32.820Z,0
2016-11-20T05:44:41.773Z,0
2016-11-20T05:45:50.755Z,0
2016-11-20T05:46:59.686Z,0
2016-11-20T05:48:09.718Z,0
2016-11-20T05:49:18.334Z,0
2016-11-20T05:50:27.264Z,0
2016-11-20T05:51:36.186Z,0
2016-11-20T05:52:45.114Z,0
2016-11-20T05:53:55.135Z,0
2016-11-20T05:55:04.063Z,0
2016-11-20T05:56:12.666Z,0
2016-11-20T05:57:21.932Z,0
2016-11-20T05:58:30.545Z,0
2016-11-20T05:59:39.844Z,0
2016-11-20T06:00:48.445Z,0
2016-11-20T06:01:57.709Z,0
2016-11-20T06:03:06.651Z,0
2016-11-20T06:04:15.273Z,0
2016-11-20T06:05:24.233Z,0
2016-11-20T06:06:33.176Z,0
2016-11-20T06:07:42.115Z,0
2016-11-20T06:08:50.736Z,0
2016-11-20T06:09:59.672Z,0
2016-11-20T06:11:09.017Z,0
2016-11-20T06:12:17.946Z,0
2016-11-20T06:13:26.553Z,0
2016-11-20T06:14:35.501Z,0
2016-11-20T06:15:45.078Z,0
2016-11-20T06:16:54.067Z,0
2016-11-20T06:18:03.009Z,0
2016-11-20T06:19:11.621Z,0
2016-11-20T06:20:20.568Z,0
2016-11-20T06:21:29.203Z,0
2016-11-20T06:22:37.941Z,0
2016-11-20T06:23:46.557Z,0
2016-11-20T06:24:55.198Z,0
2016-11-20T06:26:04.826Z,0
2016-11-20T06:27:13.438Z,4
2016-11-20T06:28:22.421Z,4
2016-11-20T06:29:31.674Z,0
2016-11-20T06:30:40.932Z,4
2016-11-20T06:31:49.863Z,4
2016-11-20T06:32:58.457Z,8
2016-11-20T06:34:07.461Z,4
2016-11-20T06:35:16.712Z,8
2016-11-20T06:36:25.323Z,12
2016-11-20T06:37:34.579Z,12
2016-11-20T06:38:43.511Z,16
2016-11-20T06:39:53.205Z,16
2016-11-20T06:41:01.819Z,20
2016-11-20T06:42:10.430Z,24
2016-11-20T06:43:19.357Z,28
2016-11-20T06:44:28.300Z,32
2016-11-20T06:45:37.897Z,40
2016-11-20T06:46:46.515Z,48
2016-11-20T06:47:55.463Z,52
2016-11-20T06:49:04.388Z,64
2016-11-20T06:50:13.649Z,72
2016-11-20T06:51:22.316Z,80
2016-11-20T06:52:30.939Z,92
2016-11-20T06:53:40.203Z,108
2016-11-20T06:54:49.163Z,120
2016-11-20T06:55:57.775Z,128
2016-11-20T06:57:07.009Z,136
2016-11-20T06:58:16.268Z,144
2016-11-20T06:59:24.892Z,156
2016-11-20T07:00:34.128Z,168
2016-11-20T07:01:43.060Z,180
2016-11-20T07:02:52.359Z,196
2016-11-20T07:04:01.289Z,204
2016-11-20T07:05:09.900Z,212
2016-11-20T07:06:18.506Z,212
2016-11-20T07:07:28.093Z,204
2016-11-20T07:08:36.834Z,200
2016-11-20T07:09:45.782Z,192
2016-11-20T07:10:54.733Z,196
2016-11-20T07:12:03.366Z,208
2016-11-20T07:13:11.969Z,220
2016-11-20T07:14:21.686Z,252
2016-11-20T07:15:30.630Z,256
2016-11-20T07:16:39.248Z,252
2016-11-20T07:17:48.196Z,264
2016-11-20T07:18:57.479Z,296
2016-11-20T07:20:07.099Z,336
2016-11-20T07:21:15.707Z,384
2016-11-20T07:22:24.319Z,432
2016-11-20T07:23:32.931Z,480
2016-11-20T07:24:41.579Z,508
2016-11-20T07:25:51.195Z,540
2016-11-20T07:27:00.792Z,576
2016-11-20T07:28:09.726Z,600
2016-11-20T07:29:18.338Z,632
2016-11-20T07:30:27.597Z,668
2016-11-20T07:31:36.898Z,684
2016-11-20T07:32:45.524Z,672
2016-11-20T07:33:54.787Z,644
2016-11-20T07:35:04.046Z,648
2016-11-20T07:36:12.655Z,668
2016-11-20T07:37:21.318Z,776
2016-11-20T07:38:29.929Z,920
2016-11-20T07:39:39.498Z,1000
2016-11-20T07:40:48.115Z,1012
2016-11-20T07:41:56.728Z,980
2016-11-20T07:43:05.406Z,932
2016-11-20T07:44:14.669Z,912
2016-11-20T07:45:23.609Z,944
2016-11-20T07:46:32.535Z,960
2016-11-20T07:47:41.478Z,968
2016-11-20T07:48:50.869Z,1000
2016-11-20T07:50:00.126Z,1072
2016-11-20T07:51:09.389Z,1096
2016-11-20T07:52:18.327Z,1096
2016-11-20T07:53:26.929Z,1128
2016-11-20T07:54:36.204Z,1096
2016-11-20T07:55:44.830Z,1072
2016-11-20T07:56:54.090Z,1176
2016-11-20T07:58:03.027Z,1224
2016-11-20T07:59:12.285Z,1236
2016-11-20T08:00:21.229Z,1240
2016-11-20T08:01:30.495Z,1252
2016-11-20T08:02:39.108Z,1224
2016-11-20T08:03:48.685Z,1200
2016-11-20T08:04:57.931Z,1300
2016-11-20T08:06:06.943Z,1444
2016-11-20T08:07:15.890Z,1476
2016-11-20T08:08:24.822Z,1424
2016-11-20T08:09:33.806Z,1308
2016-11-20T08:10:42.746Z,1244
2016-11-20T08:11:52.370Z,1228
2016-11-20T08:13:00.990Z,1228
2016-11-20T08:14:09.934Z,1180
2016-11-20T08:15:18.564Z,1104
2016-11-20T08:16:27.176Z,1088
2016-11-20T08:17:36.219Z,1168
2016-11-20T08:18:44.846Z,1320
2016-11-20T08:19:54.109Z,1396
2016-11-20T08:21:03.037Z,1412
2016-11-20T08:22:11.985Z,1392
2016-11-20T08:23:21.288Z,1444
2016-11-20T08:24:30.221Z,1548
2016-11-20T08:25:39.169Z,1724
2016-11-20T08:26:48.419Z,1784
2016-11-20T08:27:57.027Z,1756
2016-11-20T08:29:06.333Z,1660
2016-11-20T08:30:15.264Z,1568
2016-11-20T08:31:24.201Z,1444
2016-11-20T08:32:33.465Z,1376
2016-11-20T08:33:42.079Z,1436
2016-11-20T08:34:51.083Z,1452
2016-11-20T08:35:59.692Z,1432
2016-11-20T08:37:08.698Z,1472
2016-11-20T08:38:17.964Z,1600
2016-11-20T08:39:26.903Z,1484
2016-11-20T08:40:36.618Z,1460
2016-11-20T08:41:45.270Z,1392
2016-11-20T08:42:54.949Z,1316
2016-11-20T08:44:03.666Z,1308
2016-11-20T08:45:12.923Z,1272
2016-11-20T08:46:22.522Z,1260
2016-11-20T08:47:31.447Z,1384
2016-11-20T08:48:40.694Z,1364
2016-11-20T08:49:49.703Z,1232
2016-11-20T08:50:59.012Z,1156
2016-11-20T08:52:08.329Z,1196
2016-11-20T08:53:17.356Z,1240
2016-11-20T08:54:26.837Z,1152
2016-11-20T08:55:35.856Z,1120
2016-11-20T08:56:45.423Z,1148
2016-11-20T08:57:54.762Z,1160
2016-11-20T08:59:03.367Z,1116
2016-11-20T09:00:12.317Z,1056
2016-11-20T09:01:21.581Z,1064
2016-11-20T09:02:30.212Z,980
2016-11-20T09:03:39.122Z,896
2016-11-20T09:04:48.091Z,808
2016-11-20T09:05:57.666Z,796
2016-11-20T09:07:06.395Z,872
2016-11-20T09:08:15.663Z,912
2016-11-20T09:09:24.618Z,884
2016-11-20T09:10:33.239Z,860
2016-11-20T09:11:41.865Z,888
2016-11-20T09:12:51.149Z,908
2016-11-20T09:13:59.760Z,924
2016-11-20T09:15:08.435Z,896
2016-11-20T09:16:17.697Z,868
2016-11-20T09:17:26.303Z,840
2016-11-20T09:18:35.238Z,740
2016-11-20T09:19:44.172Z,704
2016-11-20T09:20:53.558Z,716
2016-11-20T09:22:02.500Z,752
2016-11-20T09:23:11.977Z,860
2016-11-20T09:24:21.244Z,896
2016-11-20T09:25:30.199Z,916
2016-11-20T09:26:39.481Z,860
2016-11-20T09:27:48.394Z,816
2016-11-20T09:28:57.316Z,808
2016-11-20T09:30:06.582Z,780
2016-11-20T09:31:15.520Z,784
2016-11-20T09:32:24.898Z,824
2016-11-20T09:33:34.468Z,860
2016-11-20T09:34:43.391Z,828
2016-11-20T09:35:51.991Z,708
2016-11-20T09:37:00.603Z,668
2016-11-20T09:38:09.579Z,704
2016-11-20T09:39:18.520Z,768
2016-11-20T09:40:27.127Z,820
2016-11-20T09:41:35.743Z,872
2016-11-20T09:42:44.349Z,932
2016-11-20T09:43:53.311Z,972
2016-11-20T09:45:01.930Z,916
2016-11-20T09:46:11.176Z,876
2016-11-20T09:47:20.112Z,948
2016-11-20T09:48:29.030Z,1020
2016-11-20T09:49:38.017Z,1088
2016-11-20T09:50:46.627Z,1064
2016-11-20T09:51:55.220Z,1108
2016-11-20T09:53:04.146Z,1196
2016-11-20T09:54:13.403Z,1248
2016-11-20T09:55:22.348Z,1324
2016-11-20T09:56:31.300Z,1360
2016-11-20T09:57:40.563Z,1340
2016-11-20T09:58:49.178Z,1564
2016-11-20T09:59:58.108Z,1988
2016-11-20T10:01:07.054Z,2444
2016-11-20T10:02:16.111Z,2428
2016-11-20T10:03:26.061Z,2560
2016-11-20T10:04:34.997Z,2856
2016-11-20T10:05:43.608Z,2908
2016-11-20T10:06:52.685Z,2288
2016-11-20T10:08:01.643Z,2116
2016-11-20T10:09:10.245Z,1900
2016-11-20T10:10:18.866Z,1772
2016-11-20T10:11:27.811Z,1764
2016-11-20T10:12:37.211Z,1752
2016-11-20T10:13:45.837Z,1796
2016-11-20T10:14:54.772Z,1968
2016-11-20T10:16:04.023Z,1916
2016-11-20T10:17:13.623Z,2332
2016-11-20T10:18:22.604Z,2608
2016-11-20T10:19:31.868Z,3020
2016-11-20T10:20:40.846Z,3520
2016-11-20T10:21:49.472Z,4512
2016-11-20T10:22:58.408Z,4288
2016-11-20T10:24:07.802Z,3300
2016-11-20T10:25:17.068Z,3644
2016-11-20T10:26:25.995Z,3684
2016-11-20T10:27:34.935Z,3284
2016-11-20T10:28:44.218Z,3092
2016-11-20T10:29:52.933Z,3268
2016-11-20T10:31:02.197Z,2984
2016-11-20T10:32:10.810Z,2524
2016-11-20T10:33:19.739Z,3040
2016-11-20T10:34:28.672Z,3460
2016-11-20T10:35:38.307Z,4716
2016-11-20T10:36:46.928Z,5708
2016-11-20T10:37:56.184Z,5176
2016-11-20T10:39:04.806Z,5380
2016-11-20T10:40:13.427Z,4968
2016-11-20T10:41:22.704Z,5620
2016-11-20T10:42:31.633Z,6340
2016-11-20T10:43:40.610Z,6904
2016-11-20T10:44:49.256Z,6768
2016-11-20T10:45:58.208Z,7380
2016-11-20T10:47:07.818Z,6480
2016-11-20T10:48:16.766Z,5596
2016-11-20T10:49:26.037Z,4600
2016-11-20T10:50:34.665Z,4448
2016-11-20T10:51:43.273Z,4200
2016-11-20T10:52:52.268Z,4100
2016-11-20T10:54:01.201Z,4376
2016-11-20T10:55:09.811Z,6284
2016-11-20T10:56:19.052Z,6804
2016-11-20T10:57:28.325Z,6208
2016-11-20T10:58:38.189Z,5392
2016-11-20T10:59:46.809Z,6124
2016-11-20T11:00:56.371Z,5940
2016-11-20T11:02:04.988Z,5676
2016-11-20T11:03:14.265Z,5660
2016-11-20T11:04:23.556Z,4952
2016-11-20T11:05:32.489Z,4756
2016-11-20T11:06:41.447Z,4660
2016-11-20T11:07:50.373Z,5348
2016-11-20T11:08:58.987Z,6020
2016-11-20T11:10:07.699Z,6164
2016-11-20T11:11:16.307Z,6432
2016-11-20T11:12:25.316Z,6584
2016-11-20T11:13:33.924Z,6312
2016-11-20T11:14:43.199Z,6744
2016-11-20T11:15:52.190Z,7024
2016-11-20T11:17:01.761Z,7324
2016-11-20T11:18:10.375Z,6464
2016-11-20T11:19:19.636Z,6764
2016-11-20T11:20:28.576Z,5752
2016-11-20T11:21:37.957Z,4068
2016-11-20T11:22:46.896Z,2948
2016-11-20T11:23:56.161Z,2780
2016-11-20T11:25:05.170Z,2228
2016-11-20T11:26:14.526Z,2680
2016-11-20T11:27:24.231Z,3596
2016-11-20T11:28:33.168Z,4996
2016-11-20T11:29:42.132Z,4736
2016-11-20T11:30:51.731Z,4132
2016-11-20T11:32:00.977Z,4124
2016-11-20T11:33:09.963Z,3984
2016-11-20T11:34:18.586Z,4032
2016-11-20T11:35:27.529Z,4312
2016-11-20T11:36:36.791Z,4668
2016-11-20T11:37:45.709Z,4532
2016-11-20T11:38:55.414Z,5324
2016-11-20T11:40:04.026Z,5716
2016-11-20T11:41:12.669Z,5608
2016-11-20T11:42:21.636Z,5888
2016-11-20T11:43:30.956Z,6348
2016-11-20T11:44:40.305Z,6864
2016-11-20T11:45:48.933Z,7284
2016-11-20T11:46:58.205Z,8212
2016-11-20T11:48:07.137Z,8676
2016-11-20T11:49:15.747Z,9256
2016-11-20T11:50:24.779Z,9688
2016-11-20T11:51:34.059Z,10252
2016-11-20T11:52:42.991Z,10420
2016-11-20T11:53:52.255Z,10380
2016-11-20T11:55:01.200Z,10324
2016-11-20T11:56:10.914Z,9964
2016-11-20T11:57:19.845Z,9516
2016-11-20T11:58:28.460Z,8516
2016-11-20T11:59:37.091Z,8928
2016-11-20T12:00:46.694Z,9000
2016-11-20T12:01:55.742Z,8524
2016-11-20T12:03:04.991Z,8608
2016-11-20T12:04:13.605Z,8280
2016-11-20T12:05:22.531Z,8448
2016-11-20T12:06:31.796Z,7728
2016-11-20T12:07:40.512Z,7448
2016-11-20T12:08:49.443Z,9424
2016-11-20T12:09:58.063Z,9800
2016-11-20T12:11:07.017Z,9672
2016-11-20T12:12:15.625Z,9568
2016-11-20T12:13:24.691Z,8604
2016-11-20T12:14:33.974Z,8008
2016-11-20T12:15:42.953Z,7464
2016-11-20T12:16:51.877Z,9100
2016-11-20T12:18:00.496Z,11360
2016-11-20T12:19:10.559Z,11596
2016-11-20T12:20:19.810Z,11336
2016-11-20T12:21:29.051Z,11368
2016-11-20T12:22:37.996Z,11492
2016-11-20T12:23:46.937Z,11556
2016-11-20T12:24:56.454Z,11676
2016-11-20T12:26:05.387Z,12336
2016-11-20T12:27:14.340Z,13332
2016-11-20T12:28:23.954Z,11920
2016-11-20T12:29:33.215Z,10588
2016-11-20T12:30:42.187Z,10384
2016-11-20T12:31:51.547Z,10108
2016-11-20T12:33:00.497Z,10544
2016-11-20T12:34:09.752Z,10468
2016-11-20T12:35:18.371Z,10448
2016-11-20T12:36:27.784Z,9712
2016-11-20T12:37:36.408Z,8508
2016-11-20T12:38:45.343Z,8020
2016-11-20T12:39:54.291Z,6836
2016-11-20T12:41:03.231Z,6136
2016-11-20T12:42:12.272Z,6340
2016-11-20T12:43:21.544Z,6956
2016-11-20T12:44:30.808Z,6364
2016-11-20T12:45:39.432Z,5964
2016-11-20T12:46:48.706Z,6592
2016-11-20T12:47:57.689Z,7092
2016-11-20T12:49:06.660Z,6948
2016-11-20T12:50:15.599Z,6296
2016-11-20T12:51:24.213Z,5944
2016-11-20T12:52:32.835Z,5564
2016-11-20T12:53:41.808Z,5672
2016-11-20T12:54:50.759Z,5896
2016-11-20T12:56:00.045Z,5672
2016-11-20T12:57:08.658Z,4808
2016-11-20T12:58:17.589Z,4092
2016-11-20T12:59:26.564Z,3808
2016-11-20T13:00:35.176Z,3740
2016-11-20T13:01:43.795Z,3484
2016-11-20T13:02:52.749Z,3684
2016-11-20T13:04:02.007Z,3648
2016-11-20T13:05:10.967Z,3180
2016-11-20T13:06:20.251Z,2380
2016-11-20T13:07:29.194Z,2816
2016-11-20T13:08:38.141Z,3100
2016-11-20T13:09:47.082Z,3556
2016-11-20T13:10:55.762Z,3240
2016-11-20T13:12:04.711Z,2532
2016-11-20T13:13:13.978Z,1976
2016-11-20T13:14:23.245Z,1724
2016-11-20T13:15:32.184Z,1848
2016-11-20T13:16:41.233Z,1728
2016-11-20T13:17:49.834Z,2800
2016-11-20T13:18:58.782Z,2596
2016-11-20T13:20:07.390Z,2464
2016-11-20T13:21:15.997Z,2800
2016-11-20T13:22:25.325Z,2528
2016-11-20T13:23:33.953Z,2368
2016-11-20T13:24:42.900Z,1792
2016-11-20T13:25:51.511Z,1740
2016-11-20T13:27:01.093Z,1824
2016-11-20T13:28:10.091Z,2132
2016-11-20T13:29:19.039Z,2684
2016-11-20T13:30:28.639Z,3288
2016-11-20T13:31:38.229Z,2284
2016-11-20T13:32:47.501Z,2536
2016-11-20T13:33:56.505Z,3284
2016-11-20T13:35:06.091Z,3540
2016-11-20T13:36:15.044Z,2860
2016-11-20T13:37:23.678Z,2948
2016-11-20T13:38:32.631Z,2248
2016-11-20T13:39:41.305Z,1676
2016-11-20T13:40:50.584Z,1036
2016-11-20T13:41:59.849Z,1716
2016-11-20T13:43:08.820Z,2068
2016-11-20T13:44:17.760Z,2000
2016-11-20T13:45:26.418Z,1692
2016-11-20T13:46:35.683Z,1788
2016-11-20T13:47:44.308Z,2056
2016-11-20T13:48:53.270Z,1344
2016-11-20T13:50:02.538Z,1064
2016-11-20T13:51:11.516Z,1028
2016-11-20T13:52:21.106Z,800
2016-11-20T13:53:29.733Z,664
2016-11-20T13:54:38.659Z,908
2016-11-20T13:55:47.643Z,1300
2016-11-20T13:56:56.923Z,1184
2016-11-20T13:58:05.546Z,1224
2016-11-20T13:59:14.152Z,1604
2016-11-20T14:00:22.767Z,2036
2016-11-20T14:01:31.384Z,2052
2016-11-20T14:02:41.119Z,1140
2016-11-20T14:03:50.381Z,1476
2016-11-20T14:04:59.001Z,1668
2016-11-20T14:06:07.632Z,1920
2016-11-20T14:07:16.888Z,1488
2016-11-20T14:08:26.205Z,856
2016-11-20T14:09:35.477Z,656
2016-11-20T14:10:44.427Z,780
2016-11-20T14:11:53.702Z,644
2016-11-20T14:13:02.641Z,624
2016-11-20T14:14:12.315Z,712
2016-11-20T14:15:20.943Z,784
2016-11-20T14:16:30.202Z,960
2016-11-20T14:17:39.152Z,1352
2016-11-20T14:18:47.771Z,1828
2016-11-20T14:19:57.115Z,2088
2016-11-20T14:21:06.383Z,2140
2016-11-20T14:22:15.321Z,1460
2016-11-20T14:23:24.271Z,1008
2016-11-20T14:24:33.552Z,760
2016-11-20T14:25:42.220Z,1168
2016-11-20T14:26:50.839Z,1812
2016-11-20T14:27:59.778Z,2072
2016-11-20T14:29:09.262Z,1972
2016-11-20T14:30:17.871Z,1724
2016-11-20T14:31:26.872Z,1364
2016-11-20T14:32:36.142Z,1228
2016-11-20T14:33:44.758Z,1152
2016-11-20T14:34:54.053Z,1056
2016-11-20T14:36:02.993Z,944
2016-11-20T14:37:12.382Z,1044
2016-11-20T14:38:21.336Z,1044
2016-11-20T14:39:30.278Z,1016
2016-11-20T14:40:39.865Z,1000
2016-11-20T14:41:48.807Z,1068
2016-11-20T14:42:57.876Z,968
2016-11-20T14:44:06.484Z,1096
2016-11-20T14:45:15.431Z,1004
2016-11-20T14:46:24.365Z,820
2016-11-20T14:47:33.307Z,652
2016-11-20T14:48:42.292Z,644
2016-11-20T14:49:50.901Z,520
2016-11-20T14:51:00.161Z,680
2016-11-20T14:52:09.436Z,616
2016-11-20T14:53:19.029Z,604
2016-11-20T14:54:28.066Z,680
2016-11-20T14:55:36.696Z,632
2016-11-20T14:56:45.628Z,704
2016-11-20T14:57:54.564Z,700
2016-11-20T14:59:03.182Z,652
2016-11-20T15:00:13.066Z,568
2016-11-20T15:01:22.999Z,528
2016-11-20T15:02:32.296Z,512
2016-11-20T15:03:41.252Z,428
2016-11-20T15:04:49.966Z,412
2016-11-20T15:06:00.482Z,368
2016-11-20T15:07:09.469Z,364
2016-11-20T15:08:18.417Z,264
2016-11-20T15:09:27.030Z,204
2016-11-20T15:10:35.654Z,204
2016-11-20T15:11:44.364Z,220
2016-11-20T15:12:53.339Z,208
2016-11-20T15:14:01.952Z,196
2016-11-20T15:15:10.899Z,212
2016-11-20T15:16:19.854Z,192
2016-11-20T15:17:28.517Z,168
2016-11-20T15:18:37.116Z,148
2016-11-20T15:19:45.728Z,144
2016-11-20T15:20:55.303Z,112
2016-11-20T15:22:03.914Z,112
2016-11-20T15:23:12.896Z,92
2016-11-20T15:24:22.152Z,84
2016-11-20T15:25:31.092Z,84
2016-11-20T15:26:40.401Z,72
2016-11-20T15:27:49.988Z,60
2016-11-20T15:28:58.961Z,48
2016-11-20T15:30:07.901Z,40
2016-11-20T15:31:17.495Z,40
2016-11-20T15:32:27.062Z,36
2016-11-20T15:33:35.999Z,32
2016-11-20T15:34:45.391Z,28
2016-11-20T15:35:54.345Z,24
2016-11-20T15:37:03.288Z,16
2016-11-20T15:38:12.230Z,12
2016-11-20T15:39:21.178Z,12
2016-11-20T15:40:29.842Z,16
2016-11-20T15:41:39.128Z,8
2016-11-20T15:42:48.110Z,8
2016-11-20T15:43:56.710Z,8
2016-11-20T15:45:05.997Z,12
2016-11-20T15:46:15.296Z,12
2016-11-20T15:47:24.236Z,8
2016-11-20T15:48:33.174Z,4
2016-11-20T15:49:41.790Z,8
2016-11-20T15:50:51.044Z,4
2016-11-20T15:51:59.774Z,4
2016-11-20T15:53:08.715Z,0
2016-11-20T15:54:17.664Z,4
2016-11-20T15:55:27.251Z,4
2016-11-20T15:56:35.874Z,0
2016-11-20T15:57:44.871Z,0
2016-11-20T15:58:54.140Z,0
2016-11-20T16:00:03.093Z,0
2016-11-20T16:01:11.725Z,0
2016-11-20T16:02:20.356Z,0
2016-11-20T16:03:29.666Z,0
2016-11-20T16:04:38.314Z,0
2016-11-20T16:05:47.894Z,0
2016-11-20T16:06:56.852Z,0
2016-11-20T16:08:05.790Z,0